createdAt,value
2018-09-17T06:55:05.221Z,48.40
2018-09-17T06:57:34.972Z,49.20
2018-09-17T07:00:05.397Z,49.60
2018-09-17T07:02:35.199Z,49.20
2018-09-17T07:05:06.365Z,48.70
2018-09-17T07:07:36.236Z,48.50
2018-09-17T07:10:07.125Z,47.80
2018-09-17T07:12:37.937Z,47.70
2018-09-17T07:15:08.105Z,48.00
2018-09-17T07:17:38.802Z,47.90
2018-09-17T07:20:09.513Z,48.00
2018-09-17T07:22:39.949Z,48.40
2018-09-17T07:25:10.084Z,48.20
2018-09-17T07:27:39.428Z,48.10
2018-09-17T07:30:08.977Z,48.30
2018-09-17T07:32:39.096Z,49.00
2018-09-17T07:35:08.948Z,47.80
2018-09-17T07:37:38.810Z,48.10
2018-09-17T07:40:08.353Z,48.10
2018-09-17T07:42:37.992Z,48.60
2018-09-17T07:45:08.334Z,47.80
2018-09-17T07:47:38.744Z,48.50
2018-09-17T07:50:08.171Z,48.00
2018-09-17T07:52:37.842Z,47.70
2018-09-17T07:55:07.367Z,47.00
2018-09-17T07:57:36.720Z,47.70
2018-09-17T08:00:06.731Z,47.50
2018-09-17T08:02:36.656Z,47.70
2018-09-17T08:05:06.330Z,48.00
2018-09-17T08:07:35.609Z,47.50
2018-09-17T08:10:05.533Z,47.60
2018-09-17T08:12:35.465Z,47.80
2018-09-17T08:15:05.907Z,48.10
2018-09-17T08:17:35.804Z,48.40
2018-09-17T08:20:05.843Z,48.50
2018-09-17T08:22:35.081Z,48.40
2018-09-17T08:25:04.593Z,48.70
2018-09-17T08:27:34.446Z,48.60
2018-09-17T08:30:04.458Z,48.50
2018-09-17T08:32:34.701Z,48.50
2018-09-17T08:35:05.845Z,48.30
2018-09-17T08:37:35.070Z,48.60
2018-09-17T08:40:05.101Z,48.60
2018-09-17T08:42:34.793Z,48.50
2018-09-17T08:45:05.122Z,48.10
2018-09-17T08:47:34.495Z,48.20
2018-09-17T08:50:04.653Z,48.10
2018-09-17T08:52:33.756Z,48.10
2018-09-17T08:55:07.995Z,48.10
2018-09-17T08:57:43.475Z,48.60
2018-09-17T09:00:22.817Z,48.50
2018-09-17T09:02:56.950Z,48.40
2018-09-17T09:05:30.747Z,48.70
2018-09-17T09:08:00.446Z,48.10
2018-09-17T09:10:34.920Z,48.40
2018-09-17T09:13:08.886Z,48.50
2018-09-17T09:15:40.755Z,48.70
2018-09-17T09:18:10.662Z,49.30
2018-09-17T09:20:40.480Z,48.30
2018-09-17T09:23:10.253Z,48.30
2018-09-17T09:25:40.297Z,48.10
2018-09-17T09:28:10.165Z,48.30
2018-09-17T09:30:40.012Z,48.40
2018-09-17T09:33:09.556Z,48.10
2018-09-17T09:35:39.046Z,48.10
2018-09-17T09:38:09.088Z,47.90
2018-09-17T09:40:38.964Z,48.10
2018-09-17T09:43:08.757Z,48.00
2018-09-17T09:45:39.073Z,48.00
2018-09-17T09:48:08.906Z,48.10
2018-09-17T09:50:38.644Z,48.00
2018-09-17T09:53:08.816Z,48.10
2018-09-17T09:55:38.811Z,47.90
2018-09-17T09:58:08.526Z,47.90
2018-09-17T10:00:43.757Z,47.90
2018-09-17T10:03:17.553Z,48.10
2018-09-17T10:05:47.693Z,48.10
2018-09-17T10:08:16.994Z,47.70
2018-09-17T10:10:51.721Z,48.00
2018-09-17T11:05:14.469Z,43.80
2018-09-17T11:07:44.300Z,43.80
2018-09-17T11:10:14.169Z,43.60
2018-09-17T11:12:44.363Z,43.20
2018-09-17T11:15:14.443Z,43.00
2018-09-17T11:17:44.837Z,42.80
2018-09-17T11:20:14.715Z,42.90
2018-09-17T11:22:45.697Z,42.90
2018-09-17T11:25:16.153Z,42.80
2018-09-17T11:27:46.274Z,42.90
2018-09-17T11:30:16.250Z,43.10
2018-09-17T11:32:46.345Z,43.20
2018-09-17T11:35:16.537Z,43.00
2018-09-17T11:37:47.630Z,43.20
2018-09-17T11:40:18.073Z,43.50
2018-09-17T11:42:48.876Z,42.90
2018-09-17T11:45:19.910Z,42.90
2018-09-17T11:47:50.473Z,42.80
2018-09-17T11:50:21.047Z,42.90
2018-09-17T11:52:52.357Z,42.90
2018-09-17T11:55:22.678Z,42.90
2018-09-17T11:57:53.936Z,42.50
2018-09-17T12:00:28.660Z,42.10
2018-09-17T12:03:02.448Z,41.80
2018-09-17T12:05:36.577Z,41.90
2018-09-17T12:08:11.096Z,41.80
2018-09-17T12:10:41.415Z,41.70
2018-09-17T12:13:12.281Z,41.90
2018-09-17T12:15:43.697Z,41.90
2018-09-17T12:18:14.680Z,41.70
2018-09-17T12:20:49.004Z,42.10
2018-09-17T12:23:19.159Z,41.00
2018-09-17T12:25:49.953Z,41.10
2018-09-17T12:28:21.798Z,41.10
2018-09-17T12:30:51.690Z,41.40
2018-09-17T12:33:21.796Z,41.50
2018-09-17T12:35:52.243Z,41.40
2018-09-17T12:38:22.198Z,41.80
2018-09-17T12:40:52.038Z,41.50
2018-09-17T12:43:22.008Z,41.10
2018-09-17T12:45:51.874Z,41.80
2018-09-17T12:48:22.386Z,41.00
2018-09-17T12:50:52.720Z,41.30
2018-09-17T12:53:23.045Z,40.40
2018-09-17T12:55:53.076Z,40.90
2018-09-17T12:58:23.594Z,41.40
2018-09-17T13:00:53.650Z,41.30
2018-09-17T13:03:24.032Z,41.10
2018-09-17T13:05:54.310Z,40.90
2018-09-17T13:08:24.865Z,40.40
2018-09-17T13:10:55.027Z,40.30
2018-09-17T13:13:25.600Z,40.70
2018-09-17T13:15:56.460Z,40.60
2018-09-17T13:18:26.915Z,39.60
2018-09-17T13:20:57.348Z,40.10
2018-09-17T13:23:27.319Z,39.70
2018-09-17T13:25:57.552Z,39.60
2018-09-17T13:28:27.532Z,39.50
2018-09-17T13:30:57.438Z,39.90
2018-09-17T13:33:27.426Z,40.50
2018-09-17T13:35:57.300Z,40.40
2018-09-17T13:38:28.385Z,40.20
2018-09-17T13:40:58.291Z,40.70
2018-09-17T13:43:35.922Z,40.20
2018-09-17T13:46:05.710Z,39.70
2018-09-17T13:48:35.826Z,39.70
2018-09-17T13:51:05.487Z,39.70
2018-09-17T13:53:35.072Z,39.90
2018-09-17T13:56:05.427Z,39.80
2018-09-17T13:58:34.811Z,39.20
2018-09-17T14:01:04.272Z,39.30
2018-09-17T14:03:35.285Z,39.20
2018-09-17T14:06:05.075Z,39.40
2018-09-17T14:08:35.206Z,39.00
2018-09-17T14:11:04.971Z,39.20
2018-09-17T14:13:34.632Z,39.90
2018-09-17T14:16:07.172Z,39.50
2018-09-17T14:18:37.082Z,40.60
2018-09-17T14:21:07.767Z,40.70
2018-09-17T14:23:37.291Z,40.50
2018-09-17T14:26:06.928Z,40.30
2018-09-17T14:28:37.251Z,40.10
2018-09-17T14:31:06.608Z,40.00
2018-09-17T14:33:41.084Z,40.00
2018-09-17T14:36:11.913Z,40.80
2018-09-17T14:38:45.351Z,40.10
2018-09-17T14:41:15.132Z,40.50
2018-09-17T14:43:44.577Z,40.10
2018-09-17T14:46:14.221Z,39.80
2018-09-17T14:48:43.898Z,40.00
2018-09-17T14:51:13.679Z,40.00
2018-09-17T14:53:43.780Z,40.00
2018-09-17T14:56:15.797Z,39.90
2018-09-17T14:58:45.036Z,40.10
2018-09-17T15:01:15.256Z,40.30
